Aérodrome :







RETROUVEZ-NOUS SUR...

 
LOGIN :

S'inscrire | Disclaimer

   EN    FR    IT 

 









Légende :    VFR   VFR Marginal   IFR   IFR Intensif   IFR Très Intensif
Visi : 
Plafond : 
>= 8 km
>= 3000ft
5 à 8 km
1000 à 3000 ft
1500m à 5 km
500 à 1000 ft
800 à 1500m
200 à 500 ft
< 800m
< 200 ft
Symboles :   Orages  Brouillard  Fortes neiges  Fortes précipitations  Vent > 20 kt






- Altitude de l'aérodrome : 133 ft
- Code IATA : BED


KBED - Laurence G Hanscom Field

DERNIER METAR :
  • 261651Z 00000KT 10SM OVC055 09/02 A2999 RMK AO2 SLP168 T00940017

METARs EXPIRÉS :
  • 261551Z 08007KT 10SM OVC050 09/03 A2998 RMK AO2 SLP166 T00940028
  • 261451Z 04005KT 10SM OVC049 08/03 A2999 RMK AO2 SLP170 60000 T00780028 51009

TAF KBED
Valide du 26 à 16h jusqu'au 27 à 12h UTC


261536Z 2616/2712 04005KT P6SM OVC050
FM262100 07006KT P6SM BKN015
FM270000 07006KT 4SM BR VCSH OVC003
FM270500 08010G17KT 3SM BR VCSH OVC008
FM270800 09013G24KT 3SM RA BR OVC003



MET'MAP, la Météo Aéronautique d'un coup d'oeil ! - Copyright ORBIFLY Décembre 2007 - Disclaimer

ORBIFLY MET'MAP TEAM :

Programmation & Développement : Alexandra Zaïnal
Sur une idée originale de : Baudouin d'Aumeries
Assistance à la programmation : Marc-Olivier Méhu
Soutien technique & logistique : Manuel Goepfert

Contact : metmap@orbifly.com




SOURCES & CREDITS :

   NOAA